Time;durP1;ratioP1;P1;durP2;ratioP2;P2;SDS_P1;SDS_P2;PMS_P1;PMS_P2;Temp;Humidity;BMP_temperature;BMP_pressure;BME280_temperature;BME280_humidity;BME280_pressure;Samples;Min_cycle;Max_cycle;Signal;HPM_P1;HPM_P2
2024/01/31 00:00:26;;;;;;;;;;;20.30;40.60;;;;;;4993100;28;19922;-54
2024/01/31 00:02:53;;;;;;;;;;;20.40;40.70;;;;;;4994541;28;19921;-54
2024/01/31 00:05:20;;;;;;;;;;;20.30;40.60;;;;;;5010128;28;19947;-54
2024/01/31 00:07:48;;;;;;;;;;;20.30;40.60;;;;;;5012499;28;19922;-55
2024/01/31 00:10:16;;;;;;;;;;;20.40;40.80;;;;;;5008030;28;19964;-52
2024/01/31 00:12:42;;;;;;;;;;;20.30;40.70;;;;;;4993258;28;19922;-53
2024/01/31 00:15:09;;;;;;;;;;;20.30;40.70;;;;;;4994103;28;19922;-55
2024/01/31 00:17:36;;;;;;;;;;;20.30;40.80;;;;;;4993432;28;19922;-51
2024/01/31 00:20:03;;;;;;;;;;;20.30;40.80;;;;;;4993094;28;19971;-54
2024/01/31 00:22:30;;;;;;;;;;;20.30;40.80;;;;;;4994207;28;19928;-53
2024/01/31 00:24:58;;;;;;;;;;;20.30;40.80;;;;;;4992431;28;19970;-53
2024/01/31 00:27:24;;;;;;;;;;;20.30;40.80;;;;;;5009878;28;19987;-53
2024/01/31 00:29:51;;;;;;;;;;;20.30;40.90;;;;;;4990941;28;19970;-53
2024/01/31 00:32:18;;;;;;;;;;;20.20;40.80;;;;;;4991504;28;19947;-54
2024/01/31 00:34:44;;;;;;;;;;;20.20;40.80;;;;;;4991894;28;19921;-52
2024/01/31 00:37:11;;;;;;;;;;;20.20;40.80;;;;;;4992829;28;19921;-53
2024/01/31 00:39:41;;;;;;;;;;;20.20;40.80;;;;;;5010237;28;19974;-54
2024/01/31 00:42:09;;;;;;;;;;;20.20;40.80;;;;;;5009954;28;19922;-54
2024/01/31 00:44:36;;;;;;;;;;;20.20;40.80;;;;;;4993828;28;19922;-53
2024/01/31 00:47:03;;;;;;;;;;;20.20;40.80;;;;;;4995502;28;19922;-54
2024/01/31 00:49:29;;;;;;;;;;;20.20;40.90;;;;;;5014059;28;19988;-54
2024/01/31 00:51:56;;;;;;;;;;;20.20;40.90;;;;;;4994266;28;19936;-55
2024/01/31 00:54:24;;;;;;;;;;;20.20;40.90;;;;;;4994598;28;19967;-56
2024/01/31 00:56:50;;;;;;;;;;;20.20;40.90;;;;;;4991278;28;19922;-53
2024/01/31 00:59:20;;;;;;;;;;;20.20;40.90;;;;;;4990374;28;19975;-54
2024/01/31 01:01:46;;;;;;;;;;;20.20;40.90;;;;;;4994674;28;19928;-54
2024/01/31 01:04:13;;;;;;;;;;;20.20;40.90;;;;;;5013231;28;19921;-52
2024/01/31 01:06:41;;;;;;;;;;;20.20;40.90;;;;;;4993873;28;20363;-54
2024/01/31 01:09:08;;;;;;;;;;;20.10;40.90;;;;;;4994404;28;19921;-54
2024/01/31 01:11:35;;;;;;;;;;;20.10;40.90;;;;;;4996100;28;19933;-55
2024/01/31 01:14:01;;;;;;;;;;;20.10;40.90;;;;;;5008146;28;19921;-55
2024/01/31 01:16:30;;;;;;;;;;;20.10;40.90;;;;;;5013161;28;19922;-54
2024/01/31 01:18:57;;;;;;;;;;;20.10;41.00;;;;;;5011450;28;19925;-55
2024/01/31 01:21:24;;;;;;;;;;;20.10;41.00;;;;;;4993158;28;19967;-55
2024/01/31 01:23:50;;;;;;;;;;;20.10;41.00;;;;;;5005873;28;19929;-53
2024/01/31 01:26:17;;;;;;;;;;;20.10;41.00;;;;;;5011177;28;19982;-60
2024/01/31 01:28:44;;;;;;;;;;;20.10;41.00;;;;;;5011439;28;19921;-54
2024/01/31 01:31:12;;;;;;;;;;;20.10;41.00;;;;;;4993412;28;20023;-57
2024/01/31 01:33:40;;;;;;;;;;;20.10;41.00;;;;;;4993825;28;20370;-51
2024/01/31 01:36:07;;;;;;;;;;;20.10;41.00;;;;;;4994789;28;19974;-56
2024/01/31 01:38:35;;;;;;;;;;;20.10;41.00;;;;;;5010091;28;19928;-55
2024/01/31 01:41:02;;;;;;;;;;;20.10;41.00;;;;;;4995677;28;19922;-52
2024/01/31 01:43:29;;;;;;;;;;;20.10;40.90;;;;;;4993816;28;19993;-55
2024/01/31 01:45:56;;;;;;;;;;;20.10;41.00;;;;;;4994044;28;19926;-55
2024/01/31 01:48:23;;;;;;;;;;;20.00;40.90;;;;;;4994648;28;20347;-54
2024/01/31 01:50:51;;;;;;;;;;;20.10;41.00;;;;;;4994526;28;19922;-55
2024/01/31 01:53:18;;;;;;;;;;;20.00;40.90;;;;;;4993262;28;19921;-55
2024/01/31 01:55:45;;;;;;;;;;;20.00;41.00;;;;;;4993714;28;19936;-55
2024/01/31 01:58:12;;;;;;;;;;;20.00;40.90;;;;;;4994258;28;19928;-55
2024/01/31 02:00:40;;;;;;;;;;;20.00;40.90;;;;;;4993178;28;19929;-54
2024/01/31 02:03:07;;;;;;;;;;;20.00;40.90;;;;;;4978229;28;20266;-54
2024/01/31 02:05:34;;;;;;;;;;;20.00;40.90;;;;;;4993103;28;19985;-55
2024/01/31 02:08:02;;;;;;;;;;;20.00;40.90;;;;;;4993763;28;19943;-55
2024/01/31 02:10:29;;;;;;;;;;;20.00;40.90;;;;;;4994009;28;19928;-53
2024/01/31 02:12:55;;;;;;;;;;;20.00;40.90;;;;;;4993509;28;19921;-56
2024/01/31 02:15:22;;;;;;;;;;;20.00;40.90;;;;;;4999285;28;19928;-55
2024/01/31 02:17:49;;;;;;;;;;;20.00;40.90;;;;;;4992919;28;19922;-57
2024/01/31 02:20:16;;;;;;;;;;;20.00;40.90;;;;;;5001676;28;20012;-55
2024/01/31 02:22:45;;;;;;;;;;;20.00;41.00;;;;;;5011180;28;19921;-55
2024/01/31 02:25:12;;;;;;;;;;;20.00;40.90;;;;;;5007379;28;19921;-54
2024/01/31 02:27:39;;;;;;;;;;;20.00;40.90;;;;;;4995206;28;20339;-54
2024/01/31 02:30:07;;;;;;;;;;;20.00;41.00;;;;;;4981653;28;19925;-50
2024/01/31 02:32:33;;;;;;;;;;;20.00;41.00;;;;;;4992596;28;19970;-52
2024/01/31 02:35:00;;;;;;;;;;;20.00;41.00;;;;;;5010506;28;19944;-54
2024/01/31 02:37:27;;;;;;;;;;;20.00;41.00;;;;;;4993044;28;19925;-53
2024/01/31 02:39:55;;;;;;;;;;;20.00;41.00;;;;;;4993805;28;19922;-55
2024/01/31 02:42:21;;;;;;;;;;;20.00;41.00;;;;;;4992979;28;19922;-52
2024/01/31 02:44:48;;;;;;;;;;;20.00;41.00;;;;;;4996039;28;19921;-55
2024/01/31 02:47:15;;;;;;;;;;;20.00;41.00;;;;;;4993127;28;19921;-56
2024/01/31 02:49:42;;;;;;;;;;;20.00;41.10;;;;;;5011928;28;19922;-55
2024/01/31 02:52:08;;;;;;;;;;;20.00;41.10;;;;;;4993008;28;19943;-54
2024/01/31 02:54:35;;;;;;;;;;;20.00;41.10;;;;;;5013539;28;19929;-55
2024/01/31 02:57:03;;;;;;;;;;;20.00;41.10;;;;;;4996320;28;19922;-55
2024/01/31 02:59:30;;;;;;;;;;;20.00;41.10;;;;;;4996060;28;19922;-54
2024/01/31 03:01:57;;;;;;;;;;;20.00;41.10;;;;;;4994015;28;19937;-55
2024/01/31 03:04:23;;;;;;;;;;;20.00;41.10;;;;;;4977076;28;19928;-55
2024/01/31 03:06:50;;;;;;;;;;;20.00;41.10;;;;;;4999730;28;19986;-55
2024/01/31 03:09:17;;;;;;;;;;;20.00;41.70;;;;;;4991350;28;19954;-55
2024/01/31 03:11:44;;;;;;;;;;;20.00;41.10;;;;;;4994047;28;19921;-54
2024/01/31 03:14:12;;;;;;;;;;;20.00;41.10;;;;;;4993293;28;19974;-55
2024/01/31 03:16:39;;;;;;;;;;;20.00;41.10;;;;;;5012920;28;19928;-54
2024/01/31 03:19:06;;;;;;;;;;;20.00;41.10;;;;;;5011569;28;19925;-54
2024/01/31 03:21:33;;;;;;;;;;;20.00;41.10;;;;;;5013114;28;20367;-55
2024/01/31 03:24:00;;;;;;;;;;;20.00;41.10;;;;;;4995863;28;19921;-55
2024/01/31 03:26:27;;;;;;;;;;;20.00;41.10;;;;;;5007585;28;19925;-55
2024/01/31 03:28:54;;;;;;;;;;;20.00;41.20;;;;;;4990282;28;19926;-55
2024/01/31 03:31:22;;;;;;;;;;;20.00;41.10;;;;;;4994478;28;19921;-54
2024/01/31 03:33:49;;;;;;;;;;;20.00;41.20;;;;;;4992032;28;19921;-56
2024/01/31 03:36:15;;;;;;;;;;;20.00;41.10;;;;;;4993213;28;19928;-52
2024/01/31 03:38:42;;;;;;;;;;;20.00;41.20;;;;;;4992858;28;19921;-51
2024/01/31 03:41:09;;;;;;;;;;;20.00;41.10;;;;;;4994573;28;19922;-55
2024/01/31 03:43:36;;;;;;;;;;;19.90;41.10;;;;;;4992781;28;19974;-55
2024/01/31 03:46:05;;;;;;;;;;;19.90;41.10;;;;;;4993081;28;19922;-53
2024/01/31 03:48:33;;;;;;;;;;;19.90;41.10;;;;;;4993345;28;20016;-54
2024/01/31 03:51:00;;;;;;;;;;;19.90;41.10;;;;;;5009232;28;19922;-55
2024/01/31 03:53:26;;;;;;;;;;;20.00;41.20;;;;;;4977989;28;19970;-55
2024/01/31 03:55:53;;;;;;;;;;;19.90;41.10;;;;;;4995064;28;19922;-55
2024/01/31 03:58:20;;;;;;;;;;;19.90;41.10;;;;;;5009356;28;19928;-55
2024/01/31 04:00:47;;;;;;;;;;;19.90;41.10;;;;;;4992854;28;19978;-56
2024/01/31 04:03:13;;;;;;;;;;;19.90;41.10;;;;;;5010888;28;19944;-55
2024/01/31 04:05:41;;;;;;;;;;;19.90;41.10;;;;;;5009281;28;19986;-55
2024/01/31 04:08:08;;;;;;;;;;;19.90;41.10;;;;;;4992557;28;19990;-55
2024/01/31 04:10:36;;;;;;;;;;;19.90;41.00;;;;;;4992608;28;19928;-53
2024/01/31 04:13:03;;;;;;;;;;;19.90;41.10;;;;;;4992713;28;20376;-55
2024/01/31 04:15:30;;;;;;;;;;;19.90;41.00;;;;;;4993091;28;19926;-55
2024/01/31 04:17:57;;;;;;;;;;;19.90;41.10;;;;;;4991351;28;19926;-55
2024/01/31 04:20:24;;;;;;;;;;;19.90;41.10;;;;;;4987185;28;19926;-54
2024/01/31 04:22:52;;;;;;;;;;;19.90;41.00;;;;;;4994065;28;19922;-55
2024/01/31 04:25:19;;;;;;;;;;;19.90;41.00;;;;;;4993503;28;19925;-55
2024/01/31 04:27:45;;;;;;;;;;;19.90;41.00;;;;;;4992784;28;20293;-55
2024/01/31 04:30:12;;;;;;;;;;;19.90;41.00;;;;;;5009698;28;19921;-54
2024/01/31 04:32:39;;;;;;;;;;;19.90;41.00;;;;;;4990772;28;19930;-54
2024/01/31 04:35:08;;;;;;;;;;;19.90;41.00;;;;;;4992008;28;19929;-57
2024/01/31 04:37:35;;;;;;;;;;;19.90;41.00;;;;;;4992128;28;19925;-55
2024/01/31 04:40:04;;;;;;;;;;;19.90;41.00;;;;;;5007150;28;20350;-54
2024/01/31 04:42:31;;;;;;;;;;;19.90;41.10;;;;;;4991771;28;19929;-55
2024/01/31 04:44:58;;;;;;;;;;;19.90;41.10;;;;;;5009244;28;19978;-55
2024/01/31 04:47:25;;;;;;;;;;;19.90;41.10;;;;;;4992016;28;20362;-55
2024/01/31 04:49:52;;;;;;;;;;;19.90;41.10;;;;;;5006616;28;19951;-55
2024/01/31 04:52:19;;;;;;;;;;;19.90;41.10;;;;;;5008981;28;19944;-54
2024/01/31 04:54:45;;;;;;;;;;;19.90;41.10;;;;;;5003007;28;19975;-51
2024/01/31 04:57:13;;;;;;;;;;;19.90;41.10;;;;;;4994044;28;20084;-56
2024/01/31 04:59:40;;;;;;;;;;;19.90;41.00;;;;;;4991348;28;19967;-53
2024/01/31 05:02:08;;;;;;;;;;;19.90;41.10;;;;;;4985806;28;19922;-54
2024/01/31 05:04:35;;;;;;;;;;;19.90;41.00;;;;;;5008880;28;19928;-52
2024/01/31 05:07:01;;;;;;;;;;;19.90;41.10;;;;;;4991879;28;19922;-54
2024/01/31 05:09:28;;;;;;;;;;;19.90;41.10;;;;;;4991472;28;19933;-55
2024/01/31 05:11:55;;;;;;;;;;;19.90;41.10;;;;;;4990749;28;19921;-55
2024/01/31 05:14:23;;;;;;;;;;;19.90;41.10;;;;;;5007688;28;19971;-56
2024/01/31 05:16:49;;;;;;;;;;;19.90;41.10;;;;;;5008164;28;19925;-55
2024/01/31 05:19:16;;;;;;;;;;;19.90;41.10;;;;;;5008391;28;19921;-55
2024/01/31 05:21:44;;;;;;;;;;;19.90;41.10;;;;;;4991290;28;19928;-54
2024/01/31 05:24:11;;;;;;;;;;;19.90;41.10;;;;;;4991300;28;19921;-53
2024/01/31 05:26:38;;;;;;;;;;;19.90;41.10;;;;;;4990775;28;19982;-53
2024/01/31 05:29:04;;;;;;;;;;;19.90;41.10;;;;;;4991517;28;20282;-54
2024/01/31 05:31:33;;;;;;;;;;;19.90;41.10;;;;;;4995770;28;19933;-54
2024/01/31 05:33:59;;;;;;;;;;;19.90;41.10;;;;;;5012543;28;19929;-54
2024/01/31 05:36:26;;;;;;;;;;;19.90;41.10;;;;;;5012787;28;19967;-55
2024/01/31 05:38:53;;;;;;;;;;;19.90;41.10;;;;;;5012432;28;19944;-55
2024/01/31 05:41:19;;;;;;;;;;;19.90;41.10;;;;;;4993805;28;19926;-55
2024/01/31 05:43:46;;;;;;;;;;;19.90;41.10;;;;;;4995035;28;19968;-54
2024/01/31 05:46:15;;;;;;;;;;;19.90;41.10;;;;;;4999091;28;19921;-54
2024/01/31 05:48:43;;;;;;;;;;;19.90;41.10;;;;;;5012654;28;19922;-55
2024/01/31 05:51:11;;;;;;;;;;;19.90;41.10;;;;;;4992814;28;19930;-54
2024/01/31 05:53:37;;;;;;;;;;;19.80;41.00;;;;;;4995453;28;19922;-55
2024/01/31 05:56:04;;;;;;;;;;;19.80;41.00;;;;;;5009833;28;20370;-55
2024/01/31 05:58:31;;;;;;;;;;;19.80;41.00;;;;;;4994415;28;19922;-55
2024/01/31 06:00:58;;;;;;;;;;;19.90;41.10;;;;;;4993359;28;19979;-53
2024/01/31 06:03:25;;;;;;;;;;;19.90;41.10;;;;;;4995613;28;19970;-54
2024/01/31 06:05:53;;;;;;;;;;;19.80;41.00;;;;;;5010772;28;19922;-55
2024/01/31 06:08:23;;;;;;;;;;;19.80;40.90;;;;;;4995243;28;19943;-53
2024/01/31 06:10:53;;;;;;;;;;;19.80;40.90;;;;;;4996969;28;19925;-55
2024/01/31 06:13:19;;;;;;;;;;;19.90;41.00;;;;;;4992992;28;19921;-57
2024/01/31 06:15:46;;;;;;;;;;;19.90;41.00;;;;;;4994731;28;19928;-55
2024/01/31 06:18:15;;;;;;;;;;;19.80;40.90;;;;;;4994353;28;19973;-55
2024/01/31 06:20:43;;;;;;;;;;;19.80;40.90;;;;;;4997442;28;19925;-56
2024/01/31 06:23:11;;;;;;;;;;;19.80;41.00;;;;;;4994315;28;19960;-56
2024/01/31 06:25:38;;;;;;;;;;;19.80;40.90;;;;;;5012695;28;19926;-55
2024/01/31 06:28:05;;;;;;;;;;;19.80;40.90;;;;;;4994223;28;19982;-55
2024/01/31 06:30:40;;;;;;;;;;;19.80;41.00;;;;;;4992788;28;20301;-54
2024/01/31 06:33:07;;;;;;;;;;;19.80;41.00;;;;;;5010679;28;19921;-55
2024/01/31 06:35:34;;;;;;;;;;;19.80;41.00;;;;;;4993831;28;19925;-55
2024/01/31 06:38:00;;;;;;;;;;;19.90;41.10;;;;;;4991073;28;20252;-56
2024/01/31 06:40:30;;;;;;;;;;;19.90;41.10;;;;;;4993253;28;19921;-55
2024/01/31 06:42:57;;;;;;;;;;;19.80;41.00;;;;;;4999801;28;20366;-55
2024/01/31 06:45:24;;;;;;;;;;;19.80;41.00;;;;;;4991814;28;19928;-56
2024/01/31 06:47:51;;;;;;;;;;;19.80;41.00;;;;;;4993756;28;19960;-56
2024/01/31 06:50:18;;;;;;;;;;;19.80;41.00;;;;;;4993391;28;19964;-55
2024/01/31 06:52:45;;;;;;;;;;;19.80;41.00;;;;;;4994344;28;19986;-55
2024/01/31 06:55:12;;;;;;;;;;;19.80;41.00;;;;;;5011159;28;19962;-55
2024/01/31 06:57:42;;;;;;;;;;;19.80;41.00;;;;;;5011243;28;19944;-55
2024/01/31 07:00:10;;;;;;;;;;;19.80;41.00;;;;;;4976260;28;19988;-54
2024/01/31 07:02:36;;;;;;;;;;;19.80;41.00;;;;;;5009510;28;19967;-54
2024/01/31 07:05:04;;;;;;;;;;;19.80;41.00;;;;;;5010834;28;19925;-53
2024/01/31 07:07:30;;;;;;;;;;;19.80;41.00;;;;;;5009020;28;19930;-57
2024/01/31 07:09:57;;;;;;;;;;;19.80;41.00;;;;;;4992421;28;19930;-54
2024/01/31 07:12:24;;;;;;;;;;;19.80;41.00;;;;;;5008590;28;19994;-55
2024/01/31 07:14:52;;;;;;;;;;;19.80;41.00;;;;;;5008625;28;19928;-56
2024/01/31 07:17:19;;;;;;;;;;;19.80;41.00;;;;;;4991595;28;20030;-55
2024/01/31 07:19:46;;;;;;;;;;;19.80;41.60;;;;;;4990740;28;19961;-56
2024/01/31 07:22:12;;;;;;;;;;;19.80;41.00;;;;;;5006857;28;19925;-56
2024/01/31 07:24:39;;;;;;;;;;;19.80;41.00;;;;;;4991268;28;20302;-63
2024/01/31 07:27:06;;;;;;;;;;;19.80;41.00;;;;;;5008791;28;19921;-57
2024/01/31 07:29:33;;;;;;;;;;;19.80;38.60;;;;;;4995549;28;19922;-57
2024/01/31 07:32:01;;;;;;;;;;;19.70;34.90;;;;;;4993904;28;19926;-57
2024/01/31 07:34:27;;;;;;;;;;;19.60;35.30;;;;;;5012811;28;20351;-57
2024/01/31 07:36:54;;;;;;;;;;;19.40;33.90;;;;;;4995458;28;19921;-56
2024/01/31 07:39:21;;;;;;;;;;;19.20;33.40;;;;;;4993844;28;19926;-54
2024/01/31 07:41:48;;;;;;;;;;;19.00;32.80;;;;;;4996217;28;20347;-54
2024/01/31 07:44:15;;;;;;;;;;;18.80;34.00;;;;;;4993290;28;19930;-57
2024/01/31 07:46:41;;;;;;;;;;;18.70;34.70;;;;;;5008020;28;19932;-58
2024/01/31 07:49:09;;;;;;;;;;;18.60;35.40;;;;;;5006319;28;20010;-55
2024/01/31 07:51:41;;;;;;;;;;;18.70;36.10;;;;;;4988177;28;19921;-55
2024/01/31 07:54:08;;;;;;;;;;;18.70;36.30;;;;;;4992551;28;19926;-57
2024/01/31 07:56:34;;;;;;;;;;;18.70;36.60;;;;;;4993526;28;20259;-56
2024/01/31 07:59:01;;;;;;;;;;;18.80;36.80;;;;;;5012811;28;19922;-56
2024/01/31 08:01:28;;;;;;;;;;;18.80;37.00;;;;;;4997828;28;19951;-55
2024/01/31 08:03:55;;;;;;;;;;;18.90;37.30;;;;;;5097597;28;19920;-57
2024/01/31 08:06:23;;;;;;;;;;;18.90;37.30;;;;;;5093609;28;19927;-58
2024/01/31 08:08:51;;;;;;;;;;;18.90;37.40;;;;;;4995859;28;19932;-55
2024/01/31 08:11:18;;;;;;;;;;;19.00;37.50;;;;;;5010367;28;19921;-57
2024/01/31 08:13:45;;;;;;;;;;;19.00;37.60;;;;;;4990472;28;19928;-54
2024/01/31 08:16:12;;;;;;;;;;;19.00;37.60;;;;;;5008374;28;19928;-55
2024/01/31 08:18:38;;;;;;;;;;;19.10;37.80;;;;;;4990283;28;19972;-57
2024/01/31 08:21:06;;;;;;;;;;;19.10;37.90;;;;;;4991075;28;19966;-57
2024/01/31 08:23:34;;;;;;;;;;;19.10;38.00;;;;;;4991894;28;19933;-54
2024/01/31 08:26:01;;;;;;;;;;;19.20;38.20;;;;;;4994705;28;19925;-56
2024/01/31 08:28:27;;;;;;;;;;;19.20;38.30;;;;;;4993705;28;19921;-52
2024/01/31 08:30:54;;;;;;;;;;;19.30;38.40;;;;;;4995476;28;19965;-57
2024/01/31 08:33:21;;;;;;;;;;;19.30;38.50;;;;;;5010071;28;19982;-57
2024/01/31 08:35:48;;;;;;;;;;;19.30;38.60;;;;;;5011960;28;19921;-56
2024/01/31 08:38:14;;;;;;;;;;;19.30;39.30;;;;;;5009860;28;19929;-57
2024/01/31 08:40:42;;;;;;;;;;;19.40;38.90;;;;;;4989645;28;19921;-57
2024/01/31 08:43:09;;;;;;;;;;;19.40;38.90;;;;;;4991044;28;19922;-57
2024/01/31 08:45:36;;;;;;;;;;;19.40;39.00;;;;;;4997377;28;19922;-56
2024/01/31 08:48:03;;;;;;;;;;;19.40;39.00;;;;;;4984522;28;19922;-57
2024/01/31 08:50:30;;;;;;;;;;;19.40;39.10;;;;;;4991067;28;19922;-57
2024/01/31 08:52:56;;;;;;;;;;;19.50;39.20;;;;;;4994681;28;19944;-57
2024/01/31 08:55:23;;;;;;;;;;;19.50;39.30;;;;;;4995344;28;19921;-57
2024/01/31 08:57:51;;;;;;;;;;;19.50;39.30;;;;;;4995210;28;19922;-55
2024/01/31 09:00:18;;;;;;;;;;;19.50;39.30;;;;;;5001762;28;19929;-55
2024/01/31 09:02:45;;;;;;;;;;;19.60;39.50;;;;;;4974896;28;19929;-54
2024/01/31 09:05:12;;;;;;;;;;;19.60;39.50;;;;;;4999250;28;19921;-54
2024/01/31 09:07:38;;;;;;;;;;;19.60;39.50;;;;;;4992334;28;19921;-58
2024/01/31 09:10:06;;;;;;;;;;;19.60;39.60;;;;;;5011369;28;19921;-57
2024/01/31 09:12:32;;;;;;;;;;;19.60;39.60;;;;;;4991373;28;19921;-58
2024/01/31 09:15:01;;;;;;;;;;;19.60;39.60;;;;;;5006746;28;19975;-56
2024/01/31 09:17:27;;;;;;;;;;;19.70;39.70;;;;;;5010949;28;19961;-54
2024/01/31 09:19:54;;;;;;;;;;;19.70;39.70;;;;;;4996038;28;19982;-53
2024/01/31 09:22:21;;;;;;;;;;;19.70;39.70;;;;;;4997483;28;20008;-55
2024/01/31 09:24:48;;;;;;;;;;;19.70;39.70;;;;;;5014962;28;19921;-57
2024/01/31 09:27:16;;;;;;;;;;;19.70;39.70;;;;;;4988656;28;19921;-57
2024/01/31 09:29:42;;;;;;;;;;;19.70;39.80;;;;;;4977887;28;20032;-57
2024/01/31 09:32:10;;;;;;;;;;;19.70;39.80;;;;;;4982472;28;19922;-57
2024/01/31 09:34:37;;;;;;;;;;;19.70;39.80;;;;;;4983443;28;19922;-57
2024/01/31 09:37:04;;;;;;;;;;;19.70;39.80;;;;;;5011053;28;19921;-57
2024/01/31 09:39:30;;;;;;;;;;;19.70;39.80;;;;;;5002434;28;19970;-58
2024/01/31 09:41:57;;;;;;;;;;;19.80;39.90;;;;;;5000342;28;19966;-56
2024/01/31 09:44:24;;;;;;;;;;;19.70;39.90;;;;;;4994560;28;19956;-56
2024/01/31 09:46:52;;;;;;;;;;;19.80;40.00;;;;;;4997295;28;19930;-56
2024/01/31 09:49:20;;;;;;;;;;;19.80;40.00;;;;;;4997533;28;20266;-57
2024/01/31 09:51:47;;;;;;;;;;;19.80;40.00;;;;;;4998057;28;20347;-54
2024/01/31 09:54:14;;;;;;;;;;;19.80;40.00;;;;;;5013785;28;19922;-56
2024/01/31 09:56:41;;;;;;;;;;;19.80;40.10;;;;;;4997024;28;20387;-52
2024/01/31 09:59:07;;;;;;;;;;;19.80;40.10;;;;;;4992836;28;19921;-57
2024/01/31 10:01:34;;;;;;;;;;;19.80;40.10;;;;;;4991442;28;20304;-58
2024/01/31 10:04:01;;;;;;;;;;;19.80;40.10;;;;;;5003884;28;19925;-57
2024/01/31 10:06:29;;;;;;;;;;;19.80;40.20;;;;;;4992049;28;19978;-58
2024/01/31 10:08:56;;;;;;;;;;;19.80;40.20;;;;;;4993208;28;19921;-56
2024/01/31 10:11:23;;;;;;;;;;;19.80;40.20;;;;;;4993986;28;19925;-54
2024/01/31 10:13:50;;;;;;;;;;;19.90;40.30;;;;;;4995248;28;19966;-57
2024/01/31 10:16:16;;;;;;;;;;;19.90;40.40;;;;;;4996712;28;19921;-57
2024/01/31 10:18:43;;;;;;;;;;;19.90;40.40;;;;;;5012418;28;19922;-57
2024/01/31 10:21:10;;;;;;;;;;;19.90;40.40;;;;;;4996979;28;19995;-56
2024/01/31 10:23:38;;;;;;;;;;;19.90;40.40;;;;;;4980568;28;19921;-57
2024/01/31 10:26:06;;;;;;;;;;;19.90;40.50;;;;;;5048500;28;19921;-56
2024/01/31 10:28:34;;;;;;;;;;;19.90;40.50;;;;;;5082579;28;19930;-57
2024/01/31 10:31:01;;;;;;;;;;;20.00;40.60;;;;;;5009593;28;19925;-57
2024/01/31 10:33:28;;;;;;;;;;;20.00;40.60;;;;;;5011355;28;19921;-52
2024/01/31 10:35:55;;;;;;;;;;;20.00;40.60;;;;;;4988085;28;19922;-53
2024/01/31 10:38:22;;;;;;;;;;;20.00;40.70;;;;;;4986626;28;19929;-54
2024/01/31 10:40:50;;;;;;;;;;;20.00;40.70;;;;;;5002751;28;19933;-56
2024/01/31 10:43:16;;;;;;;;;;;20.00;40.70;;;;;;5013806;28;19967;-57
2024/01/31 10:45:43;;;;;;;;;;;20.00;40.70;;;;;;4994076;28;19925;-56
2024/01/31 10:48:10;;;;;;;;;;;20.00;40.70;;;;;;4996883;28;19951;-57
2024/01/31 10:50:37;;;;;;;;;;;20.00;40.70;;;;;;5011716;28;19975;-55
2024/01/31 10:53:03;;;;;;;;;;;20.00;40.70;;;;;;4996892;28;19922;-49
2024/01/31 10:55:30;;;;;;;;;;;20.00;40.70;;;;;;4993848;28;19986;-53
2024/01/31 10:57:58;;;;;;;;;;;20.00;40.70;;;;;;4996260;28;19921;-54
2024/01/31 11:00:28;;;;;;;;;;;20.00;40.80;;;;;;4991899;28;19972;-56
2024/01/31 11:02:55;;;;;;;;;;;20.00;40.80;;;;;;4993353;28;19921;-56
2024/01/31 11:05:22;;;;;;;;;;;20.00;40.80;;;;;;5010572;28;20350;-57
2024/01/31 11:07:49;;;;;;;;;;;20.00;40.80;;;;;;4991069;28;19926;-53
2024/01/31 11:10:16;;;;;;;;;;;20.10;40.90;;;;;;4993497;28;19925;-56
2024/01/31 11:12:43;;;;;;;;;;;20.10;40.90;;;;;;5013008;28;19929;-55
2024/01/31 11:15:11;;;;;;;;;;;20.10;40.90;;;;;;4993962;28;19921;-55
2024/01/31 11:17:43;;;;;;;;;;;20.10;41.00;;;;;;4995395;28;19922;-56
2024/01/31 11:20:10;;;;;;;;;;;20.10;41.00;;;;;;5011266;28;19982;-55
2024/01/31 11:22:37;;;;;;;;;;;20.10;41.00;;;;;;4996133;28;19970;-56
2024/01/31 11:25:07;;;;;;;;;;;20.10;41.00;;;;;;4993347;28;19922;-54
2024/01/31 11:27:34;;;;;;;;;;;20.10;41.00;;;;;;4995328;28;19968;-57
2024/01/31 11:30:02;;;;;;;;;;;20.10;41.60;;;;;;5008374;28;19951;-57
2024/01/31 11:32:31;;;;;;;;;;;20.10;41.00;;;;;;4992873;28;19974;-55
2024/01/31 11:34:58;;;;;;;;;;;20.10;41.10;;;;;;4991571;28;19956;-53
2024/01/31 11:37:24;;;;;;;;;;;20.10;41.10;;;;;;4983861;28;19922;-57
2024/01/31 11:39:51;;;;;;;;;;;20.10;41.10;;;;;;4992952;28;19925;-55
2024/01/31 11:42:18;;;;;;;;;;;20.10;41.10;;;;;;4995541;28;19978;-55
2024/01/31 11:44:45;;;;;;;;;;;20.10;41.10;;;;;;4995684;28;19970;-54
2024/01/31 11:47:12;;;;;;;;;;;20.10;41.10;;;;;;4993729;28;19922;-56
2024/01/31 11:49:40;;;;;;;;;;;20.10;41.10;;;;;;4995289;28;19921;-55
2024/01/31 11:52:06;;;;;;;;;;;20.10;41.10;;;;;;4995492;28;19929;-56
2024/01/31 11:54:34;;;;;;;;;;;20.10;41.10;;;;;;4993213;28;19929;-54
2024/01/31 11:57:00;;;;;;;;;;;20.10;41.10;;;;;;4995802;28;19940;-56
2024/01/31 11:59:27;;;;;;;;;;;20.10;41.20;;;;;;5009637;28;19975;-60
2024/01/31 12:01:54;;;;;;;;;;;20.10;41.20;;;;;;4990076;28;19921;-52
2024/01/31 12:04:21;;;;;;;;;;;20.10;41.20;;;;;;4992554;28;19925;-52
2024/01/31 12:06:49;;;;;;;;;;;20.10;41.20;;;;;;4989681;28;19921;-55
2024/01/31 12:09:16;;;;;;;;;;;20.10;41.20;;;;;;5037122;28;19919;-55
2024/01/31 12:11:43;;;;;;;;;;;20.10;41.20;;;;;;5085598;28;19924;-56
2024/01/31 12:14:10;;;;;;;;;;;20.10;41.20;;;;;;5012498;28;19974;-56
2024/01/31 12:16:40;;;;;;;;;;;20.10;41.20;;;;;;5010364;28;19921;-55
2024/01/31 12:19:07;;;;;;;;;;;20.10;41.20;;;;;;4995004;28;19921;-56
2024/01/31 12:21:40;;;;;;;;;;;20.10;41.10;;;;;;5010153;28;20366;-54
2024/01/31 12:24:08;;;;;;;;;;;20.10;41.20;;;;;;4994981;28;19925;-55
2024/01/31 12:26:35;;;;;;;;;;;20.10;41.10;;;;;;5010203;28;20285;-55
2024/01/31 12:29:01;;;;;;;;;;;20.10;41.20;;;;;;4992038;28;20137;-54
2024/01/31 12:31:28;;;;;;;;;;;20.10;41.80;;;;;;4990729;28;19925;-59
2024/01/31 12:33:55;;;;;;;;;;;20.10;41.20;;;;;;5008293;28;19926;-49
2024/01/31 12:36:22;;;;;;;;;;;20.10;41.20;;;;;;4984785;28;19966;-53
2024/01/31 12:38:48;;;;;;;;;;;20.10;41.30;;;;;;4985038;28;19926;-55
2024/01/31 12:41:19;;;;;;;;;;;20.10;41.30;;;;;;4997459;28;19925;-53
2024/01/31 12:43:46;;;;;;;;;;;20.10;41.30;;;;;;4998158;28;19972;-51
2024/01/31 12:46:13;;;;;;;;;;;20.10;41.40;;;;;;5015268;28;19926;-56
2024/01/31 12:48:39;;;;;;;;;;;20.20;41.50;;;;;;4997903;28;19922;-56
2024/01/31 12:51:06;;;;;;;;;;;20.20;41.50;;;;;;4995654;28;19929;-55
2024/01/31 12:53:33;;;;;;;;;;;20.20;41.50;;;;;;4998125;28;19928;-53
2024/01/31 12:56:00;;;;;;;;;;;20.20;41.50;;;;;;4996368;28;19929;-56
2024/01/31 12:58:28;;;;;;;;;;;20.20;41.60;;;;;;4994237;28;20370;-52
2024/01/31 13:00:55;;;;;;;;;;;20.20;41.60;;;;;;5010556;28;19921;-55
2024/01/31 13:03:22;;;;;;;;;;;20.20;41.60;;;;;;5012601;28;19921;-52
2024/01/31 13:05:48;;;;;;;;;;;20.20;41.60;;;;;;4992936;28;19943;-56
2024/01/31 13:08:15;;;;;;;;;;;20.20;41.70;;;;;;4994820;28;19974;-54
2024/01/31 13:10:42;;;;;;;;;;;20.20;41.70;;;;;;4997571;28;19970;-57
2024/01/31 13:13:10;;;;;;;;;;;20.20;41.70;;;;;;4997816;28;19929;-56
2024/01/31 13:15:38;;;;;;;;;;;20.20;41.70;;;;;;4995987;28;19921;-52
2024/01/31 13:18:05;;;;;;;;;;;20.20;41.80;;;;;;4997763;28;19922;-55
2024/01/31 13:20:32;;;;;;;;;;;20.20;41.70;;;;;;4995476;28;19921;-52
2024/01/31 13:22:59;;;;;;;;;;;20.20;41.80;;;;;;4998136;28;19921;-55
2024/01/31 13:25:26;;;;;;;;;;;20.20;41.80;;;;;;5003813;28;19928;-52
2024/01/31 13:27:52;;;;;;;;;;;20.20;41.90;;;;;;4991749;28;19934;-57
2024/01/31 13:30:19;;;;;;;;;;;20.20;41.90;;;;;;5012394;28;19921;-55
2024/01/31 13:32:47;;;;;;;;;;;20.20;41.90;;;;;;5001436;28;19921;-55
2024/01/31 13:35:14;;;;;;;;;;;20.20;41.90;;;;;;4997723;28;19925;-57
2024/01/31 13:37:41;;;;;;;;;;;20.20;42.00;;;;;;5012612;28;19922;-56
2024/01/31 13:40:09;;;;;;;;;;;20.20;42.00;;;;;;5014654;28;19921;-55
2024/01/31 13:42:36;;;;;;;;;;;20.30;42.10;;;;;;4997125;28;20416;-56
2024/01/31 13:45:03;;;;;;;;;;;20.30;42.10;;;;;;4997987;28;19922;-54
2024/01/31 13:47:30;;;;;;;;;;;20.20;42.00;;;;;;4995411;28;20020;-54
2024/01/31 13:49:58;;;;;;;;;;;20.20;42.10;;;;;;4995513;28;19921;-55
2024/01/31 13:52:26;;;;;;;;;;;20.30;42.10;;;;;;5012229;28;19921;-56
2024/01/31 13:54:52;;;;;;;;;;;20.20;42.10;;;;;;4988842;28;19921;-54
2024/01/31 13:57:19;;;;;;;;;;;20.20;42.20;;;;;;5004234;28;19922;-56
2024/01/31 13:59:46;;;;;;;;;;;20.30;42.30;;;;;;4991841;28;19926;-55
2024/01/31 14:02:13;;;;;;;;;;;20.30;42.30;;;;;;4997131;28;19922;-53
2024/01/31 14:04:39;;;;;;;;;;;20.30;42.30;;;;;;4994774;28;19921;-55
2024/01/31 14:07:08;;;;;;;;;;;20.30;42.40;;;;;;4997087;28;19921;-55
2024/01/31 14:09:34;;;;;;;;;;;20.30;42.30;;;;;;4997605;28;19929;-52
2024/01/31 14:12:03;;;;;;;;;;;20.30;42.20;;;;;;5014208;28;19923;-56
2024/01/31 14:14:30;;;;;;;;;;;20.20;42.00;;;;;;4995314;28;19921;-53